sensor_id;sensor_type;location;lat;lon;timestamp;pressure;altitude;pressure_sealevel;temperature;humidity
51313;BME280;37397;53.226;10.400;2023-08-08T00:00:43;100481.88;;;16.55;59.60
51313;BME280;37397;53.226;10.400;2023-08-08T00:03:09;100483.22;;;16.54;59.56
51313;BME280;37397;53.226;10.400;2023-08-08T00:05:36;100482.41;;;16.53;59.46
51313;BME280;37397;53.226;10.400;2023-08-08T00:08:02;100464.09;;;16.51;59.67
51313;BME280;37397;53.226;10.400;2023-08-08T00:10:29;100476.94;;;16.50;59.74
51313;BME280;37397;53.226;10.400;2023-08-08T00:12:55;100488.47;;;16.50;59.74
51313;BME280;37397;53.226;10.400;2023-08-08T00:15:22;100480.88;;;16.47;59.77
51313;BME280;37397;53.226;10.400;2023-08-08T00:17:48;100485.34;;;16.48;59.76
51313;BME280;37397;53.226;10.400;2023-08-08T00:20:15;100477.47;;;16.48;59.84
51313;BME280;37397;53.226;10.400;2023-08-08T00:22:42;100477.75;;;16.45;59.78
51313;BME280;37397;53.226;10.400;2023-08-08T00:25:08;100474.88;;;16.45;59.98
51313;BME280;37397;53.226;10.400;2023-08-08T00:27:35;100482.22;;;16.46;60.15
51313;BME280;37397;53.226;10.400;2023-08-08T00:30:02;100480.63;;;16.45;60.06
51313;BME280;37397;53.226;10.400;2023-08-08T00:32:28;100476.44;;;16.46;60.08
51313;BME280;37397;53.226;10.400;2023-08-08T00:34:55;100472.53;;;16.43;59.95
51313;BME280;37397;53.226;10.400;2023-08-08T00:37:21;100472.53;;;16.43;60.00
51313;BME280;37397;53.226;10.400;2023-08-08T00:39:48;100465.19;;;16.42;60.14
51313;BME280;37397;53.226;10.400;2023-08-08T00:42:14;100465.75;;;16.40;60.13
51313;BME280;37397;53.226;10.400;2023-08-08T00:44:40;100467.06;;;16.39;60.25
51313;BME280;37397;53.226;10.400;2023-08-08T00:47:10;100455.53;;;16.39;60.10
51313;BME280;37397;53.226;10.400;2023-08-08T00:49:37;100461.28;;;16.39;60.26
51313;BME280;37397;53.226;10.400;2023-08-08T00:52:06;100463.13;;;16.37;60.37
51313;BME280;37397;53.226;10.400;2023-08-08T00:54:33;100451.59;;;16.37;60.47
51313;BME280;37397;53.226;10.400;2023-08-08T00:57:00;100462.34;;;16.36;60.46
51313;BME280;37397;53.226;10.400;2023-08-08T00:59:27;100460.78;;;16.35;60.49
51313;BME280;37397;53.226;10.400;2023-08-08T01:01:53;100450.06;;;16.36;60.40
51313;BME280;37397;53.226;10.400;2023-08-08T01:04:22;100450.59;;;16.34;60.61
51313;BME280;37397;53.226;10.400;2023-08-08T01:07:18;100451.91;;;16.33;60.49
51313;BME280;37397;53.226;10.400;2023-08-08T01:10:00;100451.91;;;16.33;60.59
51313;BME280;37397;53.226;10.400;2023-08-08T01:12:38;100456.88;;;16.33;60.79
51313;BME280;37397;53.226;10.400;2023-08-08T01:15:09;100444.56;;;16.32;60.95
51313;BME280;37397;53.226;10.400;2023-08-08T01:17:37;100439.84;;;16.29;60.73
51313;BME280;37397;53.226;10.400;2023-08-08T01:20:05;100438.56;;;16.30;60.88
51313;BME280;37397;53.226;10.400;2023-08-08T01:22:39;100441.97;;;16.29;61.06
51313;BME280;37397;53.226;10.400;2023-08-08T01:25:07;100438.31;;;16.28;60.97
51313;BME280;37397;53.226;10.400;2023-08-08T01:27:34;100436.97;;;16.29;61.00
51313;BME280;37397;53.226;10.400;2023-08-08T01:30:02;100434.09;;;16.29;60.98
51313;BME280;37397;53.226;10.400;2023-08-08T01:32:30;100439.84;;;16.29;61.28
51313;BME280;37397;53.226;10.400;2023-08-08T01:34:57;100439.09;;;16.29;61.12
51313;BME280;37397;53.226;10.400;2023-08-08T01:37:32;100431.78;;;16.28;61.16
51313;BME280;37397;53.226;10.400;2023-08-08T01:40:03;100437.53;;;16.28;61.21
51313;BME280;37397;53.226;10.400;2023-08-08T01:42:31;100433.63;;;16.25;61.34
51313;BME280;37397;53.226;10.400;2023-08-08T01:44:59;100427.31;;;16.27;61.24
51313;BME280;37397;53.226;10.400;2023-08-08T01:47:27;100423.91;;;16.28;61.37
51313;BME280;37397;53.226;10.400;2023-08-08T01:49:53;100428.63;;;16.26;61.34
51313;BME280;37397;53.226;10.400;2023-08-08T01:52:20;100431.78;;;16.28;61.27
51313;BME280;37397;53.226;10.400;2023-08-08T01:54:49;100433.84;;;16.27;61.40
51313;BME280;37397;53.226;10.400;2023-08-08T01:57:15;100427.56;;;16.29;61.41
51313;BME280;37397;53.226;10.400;2023-08-08T01:59:41;100430.97;;;16.27;61.37
51313;BME280;37397;53.226;10.400;2023-08-08T02:02:08;100419.47;;;16.27;61.37
51313;BME280;37397;53.226;10.400;2023-08-08T02:04:35;100422.34;;;16.27;61.52
51313;BME280;37397;53.226;10.400;2023-08-08T02:07:01;100414.25;;;16.26;61.43
51313;BME280;37397;53.226;10.400;2023-08-08T02:09:29;100414.75;;;16.24;61.62
51313;BME280;37397;53.226;10.400;2023-08-08T02:11:55;100427.84;;;16.25;61.64
51313;BME280;37397;53.226;10.400;2023-08-08T02:14:23;100418.97;;;16.23;61.68
51313;BME280;37397;53.226;10.400;2023-08-08T02:16:49;100417.13;;;16.26;61.71
51313;BME280;37397;53.226;10.400;2023-08-08T02:19:15;100427.09;;;16.25;61.76
51313;BME280;37397;53.226;10.400;2023-08-08T02:21:42;100412.16;;;16.26;61.58
51313;BME280;37397;53.226;10.400;2023-08-08T02:24:09;100416.34;;;16.25;61.71
51313;BME280;37397;53.226;10.400;2023-08-08T02:26:36;100406.13;;;16.24;61.72
51313;BME280;37397;53.226;10.400;2023-08-08T02:29:06;100414.75;;;16.24;61.74
51313;BME280;37397;53.226;10.400;2023-08-08T02:31:34;100414.75;;;16.24;61.81
51313;BME280;37397;53.226;10.400;2023-08-08T02:34:01;100405.13;;;16.21;61.71
51313;BME280;37397;53.226;10.400;2023-08-08T02:36:28;100409.81;;;16.25;61.73
51313;BME280;37397;53.226;10.400;2023-08-08T02:38:55;100418.19;;;16.22;61.81
51313;BME280;37397;53.226;10.400;2023-08-08T02:41:21;100421.84;;;16.23;61.85
51313;BME280;37397;53.226;10.400;2023-08-08T02:43:50;100412.41;;;16.22;61.84
51313;BME280;37397;53.226;10.400;2023-08-08T02:46:17;100419.50;;;16.21;61.90
51313;BME280;37397;53.226;10.400;2023-08-08T02:48:44;100420.03;;;16.20;62.10
51313;BME280;37397;53.226;10.400;2023-08-08T02:51:11;100411.66;;;16.22;62.27
51313;BME280;37397;53.226;10.400;2023-08-08T02:53:37;100401.19;;;16.19;62.14
51313;BME280;37397;53.226;10.400;2023-08-08T02:56:04;100405.13;;;16.21;62.30
51313;BME280;37397;53.226;10.400;2023-08-08T02:58:35;100402.75;;;16.20;62.38
51313;BME280;37397;53.226;10.400;2023-08-08T03:01:01;100415.06;;;16.20;62.32
51313;BME280;37397;53.226;10.400;2023-08-08T03:03:28;100403.00;;;16.22;62.26
51313;BME280;37397;53.226;10.400;2023-08-08T03:05:55;100395.44;;;16.19;62.37
51313;BME280;37397;53.226;10.400;2023-08-08T03:08:23;100392.03;;;16.20;62.46
51313;BME280;37397;53.226;10.400;2023-08-08T03:10:49;100401.44;;;16.21;62.74
51313;BME280;37397;53.226;10.400;2023-08-08T03:13:16;100401.19;;;16.19;62.52
51313;BME280;37397;53.226;10.400;2023-08-08T03:15:43;100397.78;;;16.20;62.44
51313;BME280;37397;53.226;10.400;2023-08-08T03:18:09;100391.25;;;16.20;62.49
51313;BME280;37397;53.226;10.400;2023-08-08T03:20:36;100401.44;;;16.21;62.52
51313;BME280;37397;53.226;10.400;2023-08-08T03:23:04;100398.56;;;16.21;62.67
51313;BME280;37397;53.226;10.400;2023-08-08T03:25:30;100403.53;;;16.20;62.76
51313;BME280;37397;53.226;10.400;2023-08-08T03:27:57;100396.72;;;16.18;62.59
51313;BME280;37397;53.226;10.400;2023-08-08T03:30:24;100385.50;;;16.20;62.58
51313;BME280;37397;53.226;10.400;2023-08-08T03:32:50;100383.91;;;16.19;62.71
51313;BME280;37397;53.226;10.400;2023-08-08T03:35:17;100389.66;;;16.19;62.79
51313;BME280;37397;53.226;10.400;2023-08-08T03:37:44;100378.16;;;16.19;62.63
51313;BME280;37397;53.226;10.400;2023-08-08T03:40:11;100376.59;;;16.18;62.57
51313;BME280;37397;53.226;10.400;2023-08-08T03:42:40;100379.22;;;16.16;62.83
51313;BME280;37397;53.226;10.400;2023-08-08T03:45:07;100370.81;;;16.18;62.67
51313;BME280;37397;53.226;10.400;2023-08-08T03:47:34;100377.91;;;16.17;62.72
51313;BME280;37397;53.226;10.400;2023-08-08T03:50:01;100376.09;;;16.14;62.49
51313;BME280;37397;53.226;10.400;2023-08-08T03:52:28;100372.69;;;16.15;62.50
51313;BME280;37397;53.226;10.400;2023-08-08T03:54:56;100379.75;;;16.14;62.59
51313;BME280;37397;53.226;10.400;2023-08-08T03:57:22;100381.84;;;16.14;62.64
51313;BME280;37397;53.226;10.400;2023-08-08T03:59:50;100381.09;;;16.13;62.67
51313;BME280;37397;53.226;10.400;2023-08-08T04:02:16;100374.53;;;16.13;62.86
51313;BME280;37397;53.226;10.400;2023-08-08T04:04:43;100374.28;;;16.11;62.80
51313;BME280;37397;53.226;10.400;2023-08-08T04:07:09;100372.97;;;16.12;62.95
51313;BME280;37397;53.226;10.400;2023-08-08T04:09:36;100371.41;;;16.11;62.86
51313;BME280;37397;53.226;10.400;2023-08-08T04:12:03;100364.88;;;16.10;62.84
51313;BME280;37397;53.226;10.400;2023-08-08T04:14:29;100367.47;;;16.08;62.90
51313;BME280;37397;53.226;10.400;2023-08-08T04:16:56;100365.94;;;16.07;62.89
51313;BME280;37397;53.226;10.400;2023-08-08T04:19:23;100372.47;;;16.08;63.05
51313;BME280;37397;53.226;10.400;2023-08-08T04:21:49;100365.13;;;16.07;63.05
51313;BME280;37397;53.226;10.400;2023-08-08T04:24:16;100376.66;;;16.07;63.01
51313;BME280;37397;53.226;10.400;2023-08-08T04:26:42;100370.13;;;16.06;62.98
51313;BME280;37397;53.226;10.400;2023-08-08T04:29:10;100357.84;;;16.06;62.92
51313;BME280;37397;53.226;10.400;2023-08-08T04:31:37;100363.59;;;16.06;63.08
51313;BME280;37397;53.226;10.400;2023-08-08T04:34:03;100366.22;;;16.03;63.21
51313;BME280;37397;53.226;10.400;2023-08-08T04:36:30;100357.31;;;16.01;63.12
51313;BME280;37397;53.226;10.400;2023-08-08T04:38:56;100362.00;;;16.04;63.11
51313;BME280;37397;53.226;10.400;2023-08-08T04:41:23;100359.13;;;16.04;63.16
51313;BME280;37397;53.226;10.400;2023-08-08T04:43:50;100361.25;;;16.04;63.31
51313;BME280;37397;53.226;10.400;2023-08-08T04:46:16;100363.06;;;16.01;63.13
51313;BME280;37397;53.226;10.400;2023-08-08T04:48:43;100363.06;;;16.01;63.13
51313;BME280;37397;53.226;10.400;2023-08-08T04:51:09;100368.84;;;16.01;63.34
51313;BME280;37397;53.226;10.400;2023-08-08T04:53:36;100357.31;;;16.01;63.30
51313;BME280;37397;53.226;10.400;2023-08-08T04:56:02;100364.66;;;16.02;63.35
51313;BME280;37397;53.226;10.400;2023-08-08T04:58:29;100353.44;;;15.99;63.54
51313;BME280;37397;53.226;10.400;2023-08-08T05:00:56;100352.38;;;16.02;63.48
51313;BME280;37397;53.226;10.400;2023-08-08T05:03:22;100357.31;;;16.01;63.54
51313;BME280;37397;53.226;10.400;2023-08-08T05:05:49;100365.41;;;16.03;63.48
51313;BME280;37397;53.226;10.400;2023-08-08T05:08:16;100354.19;;;15.99;63.60
51313;BME280;37397;53.226;10.400;2023-08-08T05:10:42;100354.72;;;16.03;63.60
51313;BME280;37397;53.226;10.400;2023-08-08T05:13:09;100356.25;;;16.04;63.69
51313;BME280;37397;53.226;10.400;2023-08-08T05:15:36;100346.06;;;16.03;63.68
51313;BME280;37397;53.226;10.400;2023-08-08T05:18:03;100353.38;;;16.04;63.88
51313;BME280;37397;53.226;10.400;2023-08-08T05:20:30;100347.88;;;16.07;63.85
51313;BME280;37397;53.226;10.400;2023-08-08T05:22:56;100353.63;;;16.07;63.79
51313;BME280;37397;53.226;10.400;2023-08-08T05:25:23;100350.22;;;16.08;63.87
51313;BME280;37397;53.226;10.400;2023-08-08T05:27:50;100347.34;;;16.08;63.84
51313;BME280;37397;53.226;10.400;2023-08-08T05:30:16;100355.44;;;16.10;63.94
51313;BME280;37397;53.226;10.400;2023-08-08T05:32:42;100348.38;;;16.11;63.79
51313;BME280;37397;53.226;10.400;2023-08-08T05:35:09;100345.25;;;16.09;63.80
51313;BME280;37397;53.226;10.400;2023-08-08T05:37:36;100344.19;;;16.12;63.84
51313;BME280;37397;53.226;10.400;2023-08-08T05:40:03;100347.31;;;16.14;63.80
51313;BME280;37397;53.226;10.400;2023-08-08T05:42:32;100354.38;;;16.13;63.76
51313;BME280;37397;53.226;10.400;2023-08-08T05:44:59;100343.38;;;16.11;63.85
51313;BME280;37397;53.226;10.400;2023-08-08T05:47:25;100351.78;;;16.15;63.94
51313;BME280;37397;53.226;10.400;2023-08-08T05:49:52;100354.88;;;16.17;63.76
51313;BME280;37397;53.226;10.400;2023-08-08T05:52:19;100348.09;;;16.14;63.84
51313;BME280;37397;53.226;10.400;2023-08-08T05:54:45;100355.66;;;16.17;63.75
51313;BME280;37397;53.226;10.400;2023-08-08T05:57:12;100355.13;;;16.19;63.88
51313;BME280;37397;53.226;10.400;2023-08-08T05:59:39;100355.13;;;16.19;64.06
51313;BME280;37397;53.226;10.400;2023-08-08T06:02:05;100353.56;;;16.18;63.75
51313;BME280;37397;53.226;10.400;2023-08-08T06:04:32;100361.41;;;16.23;63.96
51313;BME280;37397;53.226;10.400;2023-08-08T06:07:00;100357.19;;;16.24;63.80
51313;BME280;37397;53.226;10.400;2023-08-08T06:09:26;100353.00;;;16.25;64.09
51313;BME280;37397;53.226;10.400;2023-08-08T06:11:54;100354.81;;;16.28;64.03
51313;BME280;37397;53.226;10.400;2023-08-08T06:14:20;100357.16;;;16.30;64.14
51313;BME280;37397;53.226;10.400;2023-08-08T06:16:47;100360.81;;;16.30;63.84
51313;BME280;37397;53.226;10.400;2023-08-08T06:19:13;100355.81;;;16.31;64.18
51313;BME280;37397;53.226;10.400;2023-08-08T06:21:41;100362.63;;;16.33;64.23
51313;BME280;37397;53.226;10.400;2023-08-08T06:24:08;100364.44;;;16.36;64.07
51313;BME280;37397;53.226;10.400;2023-08-08T06:26:35;100361.03;;;16.38;64.28
51313;BME280;37397;53.226;10.400;2023-08-08T06:29:01;100361.03;;;16.38;64.15
51313;BME280;37397;53.226;10.400;2023-08-08T06:31:28;100358.69;;;16.36;64.28
51313;BME280;37397;53.226;10.400;2023-08-08T06:33:54;100352.34;;;16.44;64.37
51313;BME280;37397;53.226;10.400;2023-08-08T06:36:21;100357.56;;;16.45;64.52
51313;BME280;37397;53.226;10.400;2023-08-08T06:38:47;100355.22;;;16.44;64.70
51313;BME280;37397;53.226;10.400;2023-08-08T06:41:14;100357.03;;;16.47;64.63
51313;BME280;37397;53.226;10.400;2023-08-08T06:43:41;100348.66;;;16.49;64.36
51313;BME280;37397;53.226;10.400;2023-08-08T06:46:07;100345.25;;;16.50;64.43
51313;BME280;37397;53.226;10.400;2023-08-08T06:48:34;100348.38;;;16.47;64.47
51313;BME280;37397;53.226;10.400;2023-08-08T06:51:01;100347.59;;;16.52;64.34
51313;BME280;37397;53.226;10.400;2023-08-08T06:53:27;100350.47;;;16.52;64.37
51313;BME280;37397;53.226;10.400;2023-08-08T06:55:54;100348.06;;;16.56;64.44
51313;BME280;37397;53.226;10.400;2023-08-08T06:58:20;100341.00;;;16.57;64.47
51313;BME280;37397;53.226;10.400;2023-08-08T07:00:47;100347.00;;;16.59;64.50
51313;BME280;37397;53.226;10.400;2023-08-08T07:03:13;100341.22;;;16.59;64.31
51313;BME280;37397;53.226;10.400;2023-08-08T07:05:40;100347.22;;;16.61;64.50
51313;BME280;37397;53.226;10.400;2023-08-08T07:08:06;100342.81;;;16.60;64.57
51313;BME280;37397;53.226;10.400;2023-08-08T07:10:35;100351.94;;;16.64;64.33
51313;BME280;37397;53.226;10.400;2023-08-08T07:13:02;100338.06;;;16.63;64.44
51313;BME280;37397;53.226;10.400;2023-08-08T07:15:28;100340.63;;;16.66;64.50
51313;BME280;37397;53.226;10.400;2023-08-08T07:17:55;100340.38;;;16.70;64.40
51313;BME280;37397;53.226;10.400;2023-08-08T07:20:21;100336.94;;;16.71;64.63
51313;BME280;37397;53.226;10.400;2023-08-08T07:22:49;100347.41;;;16.74;64.40
51313;BME280;37397;53.226;10.400;2023-08-08T07:25:16;100331.44;;;16.73;64.60
51313;BME280;37397;53.226;10.400;2023-08-08T07:27:42;100340.53;;;16.77;64.63
51313;BME280;37397;53.226;10.400;2023-08-08T07:30:09;100337.94;;;16.80;64.74
51313;BME280;37397;53.226;10.400;2023-08-08T07:32:36;100329.50;;;16.82;64.66
51313;BME280;37397;53.226;10.400;2023-08-08T07:35:03;100332.63;;;16.84;64.55
51313;BME280;37397;53.226;10.400;2023-08-08T07:37:32;100327.66;;;16.84;64.46
51313;BME280;37397;53.226;10.400;2023-08-08T07:39:59;100328.97;;;16.89;64.55
51313;BME280;37397;53.226;10.400;2023-08-08T07:42:26;100336.28;;;16.90;64.61
51313;BME280;37397;53.226;10.400;2023-08-08T07:44:53;100336.28;;;16.90;64.59
51313;BME280;37397;53.226;10.400;2023-08-08T07:47:20;100323.91;;;16.95;64.65
51313;BME280;37397;53.226;10.400;2023-08-08T07:49:46;100326.50;;;16.99;64.75
51313;BME280;37397;53.226;10.400;2023-08-08T07:52:13;100331.22;;;17.02;64.99
51313;BME280;37397;53.226;10.400;2023-08-08T07:54:40;100335.09;;;17.04;64.94
51313;BME280;37397;53.226;10.400;2023-08-08T07:57:06;100340.31;;;17.06;64.73
51313;BME280;37397;53.226;10.400;2023-08-08T07:59:33;100329.81;;;17.08;64.65
51313;BME280;37397;53.226;10.400;2023-08-08T08:01:59;100334.50;;;17.11;64.76
51313;BME280;37397;53.226;10.400;2023-08-08T08:04:26;100320.56;;;17.16;64.34
51313;BME280;37397;53.226;10.400;2023-08-08T08:06:52;100318.44;;;17.16;64.55
51313;BME280;37397;53.226;10.400;2023-08-08T08:09:19;100322.38;;;17.19;64.53
51313;BME280;37397;53.226;10.400;2023-08-08T08:11:46;100312.41;;;17.20;64.41
51313;BME280;37397;53.226;10.400;2023-08-08T08:14:12;100300.56;;;17.23;64.23
51313;BME280;37397;53.226;10.400;2023-08-08T08:16:39;100309.44;;;17.25;64.22
51313;BME280;37397;53.226;10.400;2023-08-08T08:19:05;100303.38;;;17.29;64.18
51313;BME280;37397;53.226;10.400;2023-08-08T08:21:32;100293.41;;;17.30;64.04
51313;BME280;37397;53.226;10.400;2023-08-08T08:23:58;100291.56;;;17.33;64.20
51313;BME280;37397;53.226;10.400;2023-08-08T08:26:25;100301.19;;;17.35;64.19
51313;BME280;37397;53.226;10.400;2023-08-08T08:28:51;100300.13;;;17.38;63.83
51313;BME280;37397;53.226;10.400;2023-08-08T08:31:18;100299.03;;;17.41;63.61
51313;BME280;37397;53.226;10.400;2023-08-08T08:33:44;100294.28;;;17.44;63.77
51313;BME280;37397;53.226;10.400;2023-08-08T08:36:12;100300.28;;;17.46;63.43
51313;BME280;37397;53.226;10.400;2023-08-08T08:38:40;100306.28;;;17.48;63.44
51313;BME280;37397;53.226;10.400;2023-08-08T08:41:08;100290.00;;;17.50;63.60
51313;BME280;37397;53.226;10.400;2023-08-08T08:43:35;100306.25;;;17.54;63.29
51313;BME280;37397;53.226;10.400;2023-08-08T08:46:03;100287.34;;;17.53;63.48
51313;BME280;37397;53.226;10.400;2023-08-08T08:48:30;100300.16;;;17.57;63.28
51313;BME280;37397;53.226;10.400;2023-08-08T08:50:58;100304.06;;;17.60;62.90
51313;BME280;37397;53.226;10.400;2023-08-08T08:53:25;100298.31;;;17.60;63.12
51313;BME280;37397;53.226;10.400;2023-08-08T08:55:52;100295.63;;;17.62;62.97
51313;BME280;37397;53.226;10.400;2023-08-08T08:58:21;100291.66;;;17.65;63.05
51313;BME280;37397;53.226;10.400;2023-08-08T09:00:48;100302.97;;;17.63;62.90
51313;BME280;37397;53.226;10.400;2023-08-08T09:03:16;100328.09;;;17.68;62.84
51313;BME280;37397;53.226;10.400;2023-08-08T09:05:43;100346.50;;;17.65;63.38
51313;BME280;37397;53.226;10.400;2023-08-08T09:08:11;100338.28;;;17.69;63.87
51313;BME280;37397;53.226;10.400;2023-08-08T09:10:38;100332.78;;;17.71;63.88
51313;BME280;37397;53.226;10.400;2023-08-08T09:13:05;100340.09;;;17.72;64.08
51313;BME280;37397;53.226;10.400;2023-08-08T09:15:32;100353.22;;;17.73;63.91
51313;BME280;37397;53.226;10.400;2023-08-08T09:18:00;100354.78;;;17.74;64.20
51313;BME280;37397;53.226;10.400;2023-08-08T09:20:27;100360.56;;;17.74;63.96
51313;BME280;37397;53.226;10.400;2023-08-08T09:22:56;100353.22;;;17.73;64.05
51313;BME280;37397;53.226;10.400;2023-08-08T09:25:24;100356.31;;;17.75;63.90
51313;BME280;37397;53.226;10.400;2023-08-08T09:27:52;100357.91;;;17.76;64.18
51313;BME280;37397;53.226;10.400;2023-08-08T09:30:22;100356.31;;;17.75;64.18
51313;BME280;37397;53.226;10.400;2023-08-08T09:32:49;100338.56;;;17.71;64.10
51313;BME280;37397;53.226;10.400;2023-08-08T09:35:15;100356.31;;;17.75;64.10
51313;BME280;37397;53.226;10.400;2023-08-08T09:37:42;100348.22;;;17.74;63.91
51313;BME280;37397;53.226;10.400;2023-08-08T09:40:09;100343.25;;;17.74;63.95
51313;BME280;37397;53.226;10.400;2023-08-08T09:42:39;100344.78;;;17.75;63.97
51313;BME280;37397;53.226;10.400;2023-08-08T09:45:08;100352.13;;;17.76;63.97
51313;BME280;37397;53.226;10.400;2023-08-08T09:47:35;100363.66;;;17.76;64.12
51313;BME280;37397;53.226;10.400;2023-08-08T09:50:04;100342.91;;;17.78;64.25
51313;BME280;37397;53.226;10.400;2023-08-08T09:52:34;100343.69;;;17.78;64.18
51313;BME280;37397;53.226;10.400;2023-08-08T09:55:02;100353.38;;;17.81;64.43
51313;BME280;37397;53.226;10.400;2023-08-08T09:57:29;100336.84;;;17.81;64.94
51313;BME280;37397;53.226;10.400;2023-08-08T09:59:56;100339.94;;;17.83;65.06
51313;BME280;37397;53.226;10.400;2023-08-08T10:02:24;100324.19;;;17.84;65.05
51313;BME280;37397;53.226;10.400;2023-08-08T10:04:52;100329.69;;;17.88;64.72
51313;BME280;37397;53.226;10.400;2023-08-08T10:07:21;100336.22;;;17.89;64.64
51313;BME280;37397;53.226;10.400;2023-08-08T10:09:48;100327.81;;;17.91;64.67
51313;BME280;37397;53.226;10.400;2023-08-08T10:12:15;100343.25;;;17.93;64.71
51313;BME280;37397;53.226;10.400;2023-08-08T10:14:43;100332.97;;;17.98;64.55
51313;BME280;37397;53.226;10.400;2023-08-08T10:17:14;100336.06;;;18.00;64.53
51313;BME280;37397;53.226;10.400;2023-08-08T10:19:58;100337.97;;;17.97;64.40
51313;BME280;37397;53.226;10.400;2023-08-08T10:22:30;100336.56;;;18.04;64.39
51313;BME280;37397;53.226;10.400;2023-08-08T10:24:57;100319.78;;;18.02;64.54
51313;BME280;37397;53.226;10.400;2023-08-08T10:27:42;100343.09;;;18.04;64.74
51313;BME280;37397;53.226;10.400;2023-08-08T10:30:08;100354.09;;;18.06;65.07
51313;BME280;37397;53.226;10.400;2023-08-08T10:32:40;100348.59;;;18.08;64.54
51313;BME280;37397;53.226;10.400;2023-08-08T10:35:08;100353.56;;;18.08;64.55
51313;BME280;37397;53.226;10.400;2023-08-08T10:37:36;100354.38;;;18.08;64.73
51313;BME280;37397;53.226;10.400;2023-08-08T10:40:04;100373.22;;;18.09;64.70
51313;BME280;37397;53.226;10.400;2023-08-08T10:42:42;100367.78;;;18.06;64.67
51313;BME280;37397;53.226;10.400;2023-08-08T10:45:11;100373.22;;;18.09;65.09
51313;BME280;37397;53.226;10.400;2023-08-08T10:47:41;100387.66;;;18.09;65.17
51313;BME280;37397;53.226;10.400;2023-08-08T10:50:11;100389.25;;;18.10;65.07
51313;BME280;37397;53.226;10.400;2023-08-08T10:52:52;100383.22;;;18.08;64.83
51313;BME280;37397;53.226;10.400;2023-08-08T10:55:23;100375.88;;;18.07;64.81
51313;BME280;37397;53.226;10.400;2023-08-08T10:57:59;100373.53;;;18.06;64.59
51313;BME280;37397;53.226;10.400;2023-08-08T11:00:31;100353.56;;;18.08;64.55
51313;BME280;37397;53.226;10.400;2023-08-08T11:02:59;100365.91;;;18.08;64.67
51313;BME280;37397;53.226;10.400;2023-08-08T11:05:29;100364.34;;;18.07;64.64
51313;BME280;37397;53.226;10.400;2023-08-08T11:07:57;100354.66;;;18.04;64.63
51313;BME280;37397;53.226;10.400;2023-08-08T11:10:23;100357.78;;;18.07;64.72
51313;BME280;37397;53.226;10.400;2023-08-08T11:12:56;100331.56;;;18.04;64.63
51313;BME280;37397;53.226;10.400;2023-08-08T11:15:23;100323.97;;;18.01;64.40
51313;BME280;37397;53.226;10.400;2023-08-08T11:17:50;100326.56;;;18.05;64.35
51313;BME280;37397;53.226;10.400;2023-08-08T11:20:16;100324.47;;;18.06;64.63
51313;BME280;37397;53.226;10.400;2023-08-08T11:22:43;100313.22;;;18.02;64.55
51313;BME280;37397;53.226;10.400;2023-08-08T11:25:09;100316.56;;;18.06;64.71
51313;BME280;37397;53.226;10.400;2023-08-08T11:27:36;100335.47;;;18.07;64.67
51313;BME280;37397;53.226;10.400;2023-08-08T11:30:07;100323.69;;;18.05;64.69
51313;BME280;37397;53.226;10.400;2023-08-08T11:32:36;100328.38;;;18.08;64.53
51313;BME280;37397;53.226;10.400;2023-08-08T11:35:04;100337.03;;;18.08;64.73
51313;BME280;37397;53.226;10.400;2023-08-08T11:37:30;100337.03;;;18.08;64.79
51313;BME280;37397;53.226;10.400;2023-08-08T11:39:57;100342.25;;;18.10;64.41
51313;BME280;37397;53.226;10.400;2023-08-08T11:42:24;100344.34;;;18.09;64.46
51313;BME280;37397;53.226;10.400;2023-08-08T11:44:50;100332.81;;;18.09;64.62
51313;BME280;37397;53.226;10.400;2023-08-08T11:47:24;100335.47;;;18.07;64.28
51313;BME280;37397;53.226;10.400;2023-08-08T11:49:51;100333.59;;;18.10;64.69
51313;BME280;37397;53.226;10.400;2023-08-08T11:52:22;100322.06;;;18.10;64.53
51313;BME280;37397;53.226;10.400;2023-08-08T11:54:51;100331.72;;;18.12;64.57
51313;BME280;37397;53.226;10.400;2023-08-08T11:57:18;100329.38;;;18.11;64.61
51313;BME280;37397;53.226;10.400;2023-08-08T11:59:48;100334.06;;;18.14;64.57
51313;BME280;37397;53.226;10.400;2023-08-08T12:02:15;100331.94;;;18.14;64.57
51313;BME280;37397;53.226;10.400;2023-08-08T12:04:45;100319.06;;;18.15;64.60
51313;BME280;37397;53.226;10.400;2023-08-08T12:07:12;100320.63;;;18.16;64.70
51313;BME280;37397;53.226;10.400;2023-08-08T12:09:39;100316.41;;;18.17;64.55
51313;BME280;37397;53.226;10.400;2023-08-08T12:12:08;100323.75;;;18.18;64.74
51313;BME280;37397;53.226;10.400;2023-08-08T12:14:41;100309.09;;;18.16;64.86
51313;BME280;37397;53.226;10.400;2023-08-08T12:17:22;100308.75;;;18.20;65.07
51313;BME280;37397;53.226;10.400;2023-08-08T12:19:49;100314.22;;;18.23;64.85
51313;BME280;37397;53.226;10.400;2023-08-08T12:22:15;100309.25;;;18.24;64.82
51313;BME280;37397;53.226;10.400;2023-08-08T12:24:42;100316.00;;;18.27;65.01
51313;BME280;37397;53.226;10.400;2023-08-08T12:27:09;100323.56;;;18.30;64.82
51313;BME280;37397;53.226;10.400;2023-08-08T12:29:35;100314.38;;;18.31;64.71
51313;BME280;37397;53.226;10.400;2023-08-08T12:32:02;100330.59;;;18.34;65.01
51313;BME280;37397;53.226;10.400;2023-08-08T12:34:34;100322.72;;;18.35;65.03
51313;BME280;37397;53.226;10.400;2023-08-08T12:37:01;100321.94;;;18.34;65.02
51313;BME280;37397;53.226;10.400;2023-08-08T12:39:29;100315.63;;;18.36;65.16
51313;BME280;37397;53.226;10.400;2023-08-08T12:41:56;100306.72;;;18.34;65.05